createdAt,value
2023-06-12T00:01:14.679Z,15.84
2023-06-12T00:03:44.842Z,15.80
2023-06-12T00:06:18.567Z,15.80
2023-06-12T00:08:46.646Z,15.77
2023-06-12T00:11:15.165Z,15.74
2023-06-12T00:13:45.137Z,15.70
2023-06-12T00:16:12.846Z,15.67
2023-06-12T00:18:41.696Z,15.64
2023-06-12T00:21:12.493Z,15.60
2023-06-12T00:23:42.761Z,15.55
2023-06-12T00:26:11.028Z,15.52
2023-06-12T00:28:43.304Z,15.49
2023-06-12T00:31:11.036Z,15.46
2023-06-12T00:33:41.659Z,15.41
2023-06-12T00:36:10.223Z,15.39
2023-06-12T00:38:39.425Z,15.35
2023-06-12T00:41:12.631Z,15.32
2023-06-12T00:43:40.902Z,15.30
2023-06-12T00:46:09.344Z,15.25
2023-06-12T00:48:38.879Z,15.21
2023-06-12T00:51:09.415Z,15.18
2023-06-12T00:53:37.443Z,15.16
2023-06-12T00:56:05.860Z,15.12
2023-06-12T00:58:35.621Z,15.07
2023-06-12T01:01:04.223Z,15.01
2023-06-12T01:03:32.732Z,14.97
2023-06-12T01:06:09.775Z,14.93
2023-06-12T01:08:49.914Z,14.91
2023-06-12T01:11:20.361Z,14.89
2023-06-12T01:13:50.322Z,14.85
2023-06-12T01:16:19.967Z,14.81
2023-06-12T01:18:50.916Z,14.79
2023-06-12T01:21:32.894Z,14.77
2023-06-12T01:24:22.816Z,14.75
2023-06-12T01:27:10.998Z,14.71
2023-06-12T01:29:53.938Z,14.68
2023-06-12T01:32:21.961Z,14.65
2023-06-12T01:35:05.340Z,14.61
2023-06-12T01:37:43.115Z,14.59
2023-06-12T01:40:15.028Z,14.52
2023-06-12T01:42:45.653Z,14.48
2023-06-12T01:45:18.991Z,14.46
2023-06-12T01:47:48.657Z,14.44
2023-06-12T01:50:19.551Z,14.40
2023-06-12T01:52:47.660Z,14.37
2023-06-12T01:55:19.731Z,14.34
2023-06-12T01:57:51.548Z,14.32
2023-06-12T02:00:20.822Z,14.28
2023-06-12T02:02:57.336Z,14.22
2023-06-12T02:05:29.900Z,14.19
2023-06-12T02:07:58.013Z,14.15
2023-06-12T02:10:28.597Z,14.11
2023-06-12T02:12:57.279Z,14.08
2023-06-12T02:15:41.412Z,14.05
2023-06-12T02:18:09.442Z,14.04
2023-06-12T02:20:38.537Z,14.03
2023-06-12T02:23:06.597Z,14.01
2023-06-12T02:25:39.339Z,13.99
2023-06-12T02:28:08.222Z,13.97
2023-06-12T02:30:36.022Z,13.94
2023-06-12T02:33:12.683Z,13.90
2023-06-12T02:36:00.907Z,13.89
2023-06-12T02:38:29.419Z,13.86
2023-06-12T02:41:00.833Z,13.82
2023-06-12T02:43:28.963Z,13.80
2023-06-12T02:45:56.748Z,13.77
2023-06-12T02:48:25.463Z,13.78
2023-06-12T02:50:53.473Z,13.78
2023-06-12T02:53:21.073Z,13.77
2023-06-12T02:55:52.147Z,13.77
2023-06-12T02:58:23.092Z,13.77
2023-06-12T03:00:52.730Z,13.78
2023-06-12T03:03:26.354Z,13.77
2023-06-12T03:05:54.387Z,13.77
2023-06-12T03:08:21.982Z,13.78
2023-06-12T03:10:49.961Z,13.80
2023-06-12T03:13:17.591Z,13.81
2023-06-12T03:15:46.320Z,13.83
2023-06-12T03:18:14.205Z,13.84
2023-06-12T03:20:44.004Z,13.87
2023-06-12T03:23:13.098Z,13.87
2023-06-12T03:25:41.216Z,13.91
2023-06-12T03:28:10.249Z,13.92
2023-06-12T03:30:38.438Z,13.94
2023-06-12T03:33:13.091Z,13.95
2023-06-12T03:35:42.105Z,13.98
2023-06-12T03:38:11.246Z,14.01
2023-06-12T03:43:22.829Z,14.09
2023-06-12T03:45:52.120Z,14.11
2023-06-12T03:48:23.639Z,14.16
2023-06-12T03:50:52.218Z,14.20
2023-06-12T03:53:19.843Z,14.26
2023-06-12T03:55:48.004Z,14.32
2023-06-12T03:58:18.053Z,14.36
2023-06-12T04:00:49.619Z,14.41
2023-06-12T04:03:18.872Z,14.47
2023-06-12T04:05:49.389Z,14.54
2023-06-12T04:08:29.481Z,14.60
2023-06-12T04:10:59.678Z,14.66
2023-06-12T04:13:28.086Z,14.70
2023-06-12T04:15:57.232Z,14.77
2023-06-12T04:18:26.923Z,14.82
2023-06-12T04:20:55.771Z,14.90
2023-06-12T04:23:31.579Z,14.97
2023-06-12T04:26:05.694Z,15.03
2023-06-12T04:28:37.885Z,15.09
2023-06-12T04:31:07.452Z,15.15
2023-06-12T04:33:38.096Z,15.24
2023-06-12T04:36:14.058Z,15.32
2023-06-12T04:38:42.889Z,15.40
2023-06-12T04:41:10.985Z,15.48
2023-06-12T04:43:39.906Z,15.56
2023-06-12T04:46:14.095Z,15.65
2023-06-12T04:48:43.310Z,15.73
2023-06-12T04:51:11.921Z,15.79
2023-06-12T04:53:47.962Z,15.85
2023-06-12T04:56:22.293Z,15.91
2023-06-12T04:58:54.282Z,15.96
2023-06-12T05:01:24.299Z,16.04
2023-06-12T05:03:56.576Z,16.12
2023-06-12T05:06:28.535Z,16.15
2023-06-12T05:08:59.795Z,16.18
2023-06-12T05:11:29.507Z,16.26
2023-06-12T05:13:58.814Z,16.35
2023-06-12T05:16:28.842Z,16.44
2023-06-12T05:19:00.166Z,16.49
2023-06-12T05:21:33.450Z,16.56
2023-06-12T05:24:14.709Z,16.60
2023-06-12T05:26:42.456Z,16.65
2023-06-12T05:29:11.680Z,16.68
2023-06-12T05:31:40.007Z,16.70
2023-06-12T05:34:08.461Z,16.75
2023-06-12T05:36:38.124Z,16.82
2023-06-12T05:39:14.238Z,16.93
2023-06-12T05:41:42.877Z,17.02
2023-06-12T05:44:10.648Z,17.09
2023-06-12T05:46:39.149Z,17.16
2023-06-12T05:49:06.763Z,17.24
2023-06-12T05:51:34.419Z,17.27
2023-06-12T05:54:03.447Z,17.32
2023-06-12T05:56:32.879Z,17.38
2023-06-12T05:59:01.550Z,17.43
2023-06-12T06:01:32.396Z,17.50
2023-06-12T06:04:00.453Z,17.58
2023-06-12T06:06:30.861Z,17.65
2023-06-12T06:09:03.853Z,17.71
2023-06-12T06:11:31.589Z,17.78
2023-06-12T06:13:59.621Z,17.84
2023-06-12T06:16:36.928Z,17.88
2023-06-12T06:19:15.505Z,17.96
2023-06-12T06:21:43.690Z,18.03
2023-06-12T06:24:12.870Z,18.09
2023-06-12T06:26:41.319Z,18.17
2023-06-12T06:29:14.305Z,18.24
2023-06-12T06:31:43.200Z,18.29
2023-06-12T06:34:11.982Z,18.31
2023-06-12T06:36:39.707Z,18.37
2023-06-12T06:39:07.812Z,18.41
2023-06-12T06:41:35.538Z,18.45
2023-06-12T06:44:03.923Z,18.53
2023-06-12T06:46:33.682Z,18.58
2023-06-12T06:49:01.446Z,18.65
2023-06-12T06:51:30.830Z,18.67
2023-06-12T06:53:58.545Z,18.70
2023-06-12T06:56:26.313Z,18.73
2023-06-12T06:58:54.024Z,18.77
2023-06-12T07:01:21.755Z,18.82
2023-06-12T07:03:50.936Z,18.88
2023-06-12T07:06:22.049Z,18.91
2023-06-12T07:08:51.882Z,18.97
2023-06-12T07:11:20.843Z,18.98
2023-06-12T07:13:49.400Z,19.02
2023-06-12T07:16:18.098Z,19.08
2023-06-12T07:18:48.264Z,19.18
2023-06-12T07:21:16.004Z,19.28
2023-06-12T07:23:45.552Z,19.33
2023-06-12T07:26:27.865Z,19.34
2023-06-12T07:29:00.313Z,19.38
2023-06-12T07:31:28.632Z,19.44
2023-06-12T07:33:57.352Z,19.55
2023-06-12T07:36:25.278Z,19.64
2023-06-12T07:38:54.889Z,19.71
2023-06-12T07:41:23.574Z,19.80
2023-06-12T07:43:53.166Z,19.87
2023-06-12T07:46:22.497Z,19.93
2023-06-12T07:48:50.628Z,20.03
2023-06-12T07:51:19.828Z,20.21
2023-06-12T07:53:49.875Z,20.38
2023-06-12T07:56:20.434Z,20.57
2023-06-12T07:58:50.425Z,20.74
2023-06-12T08:01:22.875Z,20.80
2023-06-12T08:03:50.972Z,20.82
2023-06-12T08:06:19.124Z,20.86
2023-06-12T08:08:48.588Z,20.93
2023-06-12T08:11:19.069Z,21.07
2023-06-12T08:13:50.280Z,21.10
2023-06-12T08:16:21.392Z,20.99
2023-06-12T08:18:50.650Z,20.96
2023-06-12T08:21:22.551Z,20.95
2023-06-12T08:23:51.224Z,20.87
2023-06-12T08:26:19.913Z,20.84
2023-06-12T08:28:51.041Z,20.95
2023-06-12T08:31:19.978Z,21.01
2023-06-12T08:33:50.290Z,20.99
2023-06-12T08:36:18.289Z,20.91
2023-06-12T08:38:45.909Z,20.76
2023-06-12T08:41:19.315Z,20.69
2023-06-12T08:43:47.462Z,20.69
2023-06-12T08:46:18.360Z,20.66
2023-06-12T08:48:48.287Z,20.66
2023-06-12T08:51:16.748Z,20.66
2023-06-12T08:53:44.867Z,20.65
2023-06-12T08:56:13.124Z,20.62
2023-06-12T08:58:40.849Z,20.51
2023-06-12T09:01:13.252Z,20.55
2023-06-12T09:03:47.120Z,20.63
2023-06-12T09:06:17.908Z,20.61
2023-06-12T09:08:46.167Z,20.50
2023-06-12T09:11:13.766Z,20.45
2023-06-12T09:13:45.284Z,20.51
2023-06-12T09:16:13.640Z,20.69
2023-06-12T09:18:52.526Z,20.88
2023-06-12T09:21:22.778Z,21.04
2023-06-12T09:23:51.973Z,21.18
2023-06-12T09:26:22.395Z,21.34
2023-06-12T09:28:52.700Z,21.53
2023-06-12T09:31:20.827Z,21.71
2023-06-12T09:33:52.947Z,21.85
2023-06-12T09:36:27.344Z,21.87
2023-06-12T09:38:55.429Z,21.86
2023-06-12T09:41:27.431Z,21.93
2023-06-12T09:44:02.177Z,21.98
2023-06-12T09:46:31.541Z,22.04
2023-06-12T09:48:59.803Z,22.10
2023-06-12T09:51:29.505Z,22.11
2023-06-12T09:53:59.942Z,22.12
2023-06-12T09:56:28.640Z,22.19
2023-06-12T09:58:59.068Z,22.26
2023-06-12T10:01:28.189Z,22.37
2023-06-12T10:04:00.544Z,22.39
2023-06-12T10:06:34.965Z,22.40
2023-06-12T10:09:03.417Z,22.32
2023-06-12T10:11:31.411Z,22.25
2023-06-12T10:13:59.251Z,22.23
2023-06-12T10:16:34.664Z,22.20
2023-06-12T10:19:02.624Z,22.09
2023-06-12T10:21:35.410Z,22.02
2023-06-12T10:24:04.123Z,22.00
2023-06-12T10:26:32.717Z,22.05
2023-06-12T10:29:01.848Z,22.11
2023-06-12T10:31:30.858Z,22.03
2023-06-12T10:34:03.149Z,21.91
2023-06-12T10:36:42.586Z,21.92
2023-06-12T10:39:18.363Z,22.08
2023-06-12T10:41:57.406Z,22.28
2023-06-12T10:44:42.827Z,22.39
2023-06-12T10:47:19.971Z,22.46
2023-06-12T10:49:58.741Z,22.56
2023-06-12T10:52:29.031Z,22.71
2023-06-12T10:55:23.648Z,22.93
2023-06-12T10:57:56.320Z,23.13
2023-06-12T11:00:29.234Z,23.27
2023-06-12T11:02:59.014Z,23.25
2023-06-12T11:05:28.208Z,23.24
2023-06-12T11:07:58.874Z,23.27
2023-06-12T11:10:27.324Z,23.16
2023-06-12T11:12:57.829Z,23.04
2023-06-12T11:15:27.561Z,22.90
2023-06-12T11:17:55.620Z,22.99
2023-06-12T11:20:24.174Z,23.02
2023-06-12T11:23:01.663Z,22.96
2023-06-12T11:25:33.695Z,22.81
2023-06-12T11:28:01.899Z,22.78
2023-06-12T11:30:33.226Z,22.92
2023-06-12T11:33:09.246Z,22.97
2023-06-12T11:35:42.015Z,22.93
2023-06-12T11:40:45.164Z,22.93
2023-06-12T11:43:18.124Z,22.92
2023-06-12T11:45:47.950Z,22.87
2023-06-12T11:50:51.121Z,23.25
2023-06-12T11:53:22.889Z,23.46
2023-06-12T11:58:33.924Z,23.45
2023-06-12T12:01:11.843Z,23.53
2023-06-12T12:03:44.663Z,23.66
2023-06-12T12:06:14.228Z,23.75
2023-06-12T12:08:42.235Z,23.63
2023-06-12T12:11:22.378Z,23.50
2023-06-12T12:13:53.770Z,23.35
2023-06-12T12:16:27.145Z,23.23
2023-06-12T12:18:57.121Z,23.25
2023-06-12T12:21:25.122Z,23.27
2023-06-12T12:23:54.806Z,23.29
2023-06-12T12:26:26.789Z,23.28
2023-06-12T12:28:54.690Z,23.57
2023-06-12T12:31:22.335Z,24.02
2023-06-12T12:33:51.396Z,24.45
2023-06-12T12:36:18.991Z,24.82
2023-06-12T12:38:48.861Z,25.09
2023-06-12T12:41:23.355Z,25.27
2023-06-12T12:43:51.997Z,25.39
2023-06-12T12:46:22.967Z,25.64
2023-06-12T12:48:53.782Z,25.94
2023-06-12T12:51:22.568Z,26.08
2023-06-12T12:53:50.452Z,26.37
2023-06-12T12:56:18.088Z,26.71
2023-06-12T12:58:46.022Z,26.89
2023-06-12T13:01:13.803Z,26.94
2023-06-12T13:03:42.340Z,26.68
2023-06-12T13:06:11.576Z,26.31
2023-06-12T13:08:39.531Z,25.90
2023-06-12T13:11:07.165Z,25.67
2023-06-12T13:13:36.141Z,25.57
2023-06-12T13:16:05.979Z,25.85
2023-06-12T13:18:33.683Z,26.21
2023-06-12T13:21:03.620Z,26.56
2023-06-12T13:23:31.291Z,26.83
2023-06-12T13:25:59.999Z,27.21
2023-06-12T13:28:28.960Z,27.55
2023-06-12T13:30:56.576Z,27.91
2023-06-12T13:33:24.487Z,28.16
2023-06-12T13:35:52.445Z,28.13
2023-06-12T13:38:20.274Z,27.96
2023-06-12T13:40:51.073Z,27.59
2023-06-12T13:43:19.024Z,27.31
2023-06-12T13:45:48.539Z,27.21
2023-06-12T13:48:17.564Z,27.41
2023-06-12T13:50:46.427Z,27.35
2023-06-12T13:53:14.122Z,27.20
2023-06-12T13:55:42.081Z,27.44
2023-06-12T13:58:15.320Z,27.82
2023-06-12T14:00:45.629Z,28.10
2023-06-12T14:03:13.642Z,28.38
2023-06-12T14:05:42.084Z,28.55
2023-06-12T14:08:11.057Z,28.68
2023-06-12T14:10:39.090Z,28.80
2023-06-12T14:13:06.696Z,28.85
2023-06-12T14:15:36.194Z,29.08
2023-06-12T14:18:04.136Z,29.25
2023-06-12T14:20:33.077Z,29.40
2023-06-12T14:23:05.696Z,29.73
2023-06-12T14:25:34.364Z,30.08
2023-06-12T14:28:02.419Z,31.83
2023-06-12T14:30:32.482Z,34.63
2023-06-12T14:33:00.660Z,36.58
2023-06-12T14:35:30.294Z,37.96
2023-06-12T14:37:57.916Z,39.58
2023-06-12T14:40:26.551Z,41.05
2023-06-12T14:42:54.563Z,42.19
2023-06-12T14:45:22.648Z,43.51
2023-06-12T14:48:00.371Z,44.42
2023-06-12T14:50:28.239Z,45.03
2023-06-12T14:52:55.867Z,46.11
2023-06-12T14:55:23.680Z,46.85
2023-06-12T14:57:51.496Z,47.09
2023-06-12T15:00:20.034Z,46.92
2023-06-12T15:02:48.246Z,47.08
2023-06-12T15:05:18.942Z,47.79
2023-06-12T15:10:30.825Z,49.52
2023-06-12T15:13:08.620Z,49.93
2023-06-12T15:15:40.147Z,50.72
2023-06-12T15:18:07.860Z,51.03
2023-06-12T15:20:35.506Z,51.18
2023-06-12T15:23:03.549Z,51.45
2023-06-12T15:25:43.471Z,51.78
2023-06-12T15:28:11.734Z,52.30
2023-06-12T15:30:40.605Z,52.87
2023-06-12T15:33:10.198Z,53.36
2023-06-12T15:35:37.867Z,53.70
2023-06-12T15:38:33.269Z,53.50
2023-06-12T15:41:01.196Z,53.24
2023-06-12T15:43:28.920Z,53.01
2023-06-12T15:45:57.103Z,52.78
2023-06-12T15:48:26.473Z,51.76
2023-06-12T15:50:55.457Z,48.43
2023-06-12T15:53:26.901Z,45.27
2023-06-12T15:55:55.546Z,42.68
2023-06-12T15:58:23.224Z,40.56
2023-06-12T16:00:50.960Z,38.89
2023-06-12T16:03:19.294Z,37.21
2023-06-12T16:05:47.319Z,35.66
2023-06-12T16:08:15.155Z,34.35
2023-06-12T16:10:42.776Z,33.22
2023-06-12T16:13:10.424Z,32.46
2023-06-12T16:15:38.312Z,31.73
2023-06-12T16:18:06.472Z,31.13
2023-06-12T16:20:34.252Z,30.59
2023-06-12T16:23:03.626Z,30.17
2023-06-12T16:25:31.991Z,29.76
2023-06-12T16:28:04.102Z,29.28
2023-06-12T16:30:33.031Z,28.86
2023-06-12T16:33:03.038Z,28.34
2023-06-12T16:35:30.952Z,27.94
2023-06-12T16:38:02.186Z,27.47
2023-06-12T16:40:29.947Z,27.18
2023-06-12T16:42:58.778Z,26.93
2023-06-12T16:45:26.483Z,26.72
2023-06-12T16:47:55.486Z,26.47
2023-06-12T16:50:23.371Z,26.25
2023-06-12T16:52:50.988Z,26.02
2023-06-12T16:55:21.568Z,25.82
2023-06-12T16:57:49.477Z,25.64
2023-06-12T17:00:24.874Z,25.48
2023-06-12T17:02:53.249Z,25.25
2023-06-12T17:05:21.154Z,25.13
2023-06-12T17:07:48.860Z,25.06
2023-06-12T17:10:18.161Z,24.97
2023-06-12T17:12:46.221Z,24.87
2023-06-12T17:15:14.014Z,24.70
2023-06-12T17:17:41.951Z,24.55
2023-06-12T17:20:12.116Z,24.43
2023-06-12T17:22:40.049Z,24.36
2023-06-12T17:25:10.393Z,24.25
2023-06-12T17:27:39.699Z,24.10
2023-06-12T17:30:09.755Z,23.92
2023-06-12T17:32:37.811Z,23.77
2023-06-12T17:35:10.810Z,23.59
2023-06-12T17:37:39.293Z,23.39
2023-06-12T17:40:10.993Z,23.23
2023-06-12T17:42:38.787Z,23.11
2023-06-12T17:45:08.726Z,22.95
2023-06-12T17:47:36.782Z,22.81
2023-06-12T17:50:06.165Z,22.69
2023-06-12T17:52:33.784Z,22.60
2023-06-12T17:55:03.705Z,22.48
2023-06-12T17:57:31.446Z,22.38
2023-06-12T17:59:59.484Z,22.28
2023-06-12T18:02:28.695Z,22.20
2023-06-12T18:04:56.416Z,22.12
2023-06-12T18:07:24.174Z,22.03
2023-06-12T18:09:51.856Z,21.94
2023-06-12T18:12:19.907Z,21.86
2023-06-12T18:14:47.603Z,21.77
2023-06-12T18:17:15.641Z,21.65
2023-06-12T18:19:43.588Z,21.56
2023-06-12T18:22:11.998Z,21.47
2023-06-12T18:24:39.697Z,21.36
2023-06-12T18:27:10.477Z,21.25
2023-06-12T18:29:38.563Z,21.17
2023-06-12T18:32:08.521Z,21.07
2023-06-12T18:34:36.446Z,20.98
2023-06-12T18:37:06.297Z,20.88
2023-06-12T18:39:34.180Z,20.81
2023-06-12T18:42:01.913Z,20.71
2023-06-12T18:44:29.639Z,20.63
2023-06-12T18:46:57.397Z,20.56
2023-06-12T18:49:25.195Z,20.52
2023-06-12T18:51:54.786Z,20.44
2023-06-12T18:54:22.580Z,20.38
2023-06-12T18:56:52.170Z,20.35
2023-06-12T18:59:19.911Z,20.32
2023-06-12T19:01:47.574Z,20.26
2023-06-12T19:04:15.401Z,20.21
2023-06-12T19:06:43.076Z,20.12
2023-06-12T19:09:11.227Z,20.07
2023-06-12T19:11:42.102Z,20.01
2023-06-12T19:14:09.745Z,19.96
2023-06-12T19:16:37.564Z,19.89
2023-06-12T19:19:05.401Z,19.83
2023-06-12T19:21:33.735Z,19.74
2023-06-12T19:24:01.489Z,19.66
2023-06-12T19:26:29.280Z,19.58
2023-06-12T19:28:56.911Z,19.48
2023-06-12T19:31:24.847Z,19.34
2023-06-12T19:33:54.225Z,19.18
2023-06-12T19:36:21.871Z,19.04
2023-06-12T19:38:49.522Z,18.88
2023-06-12T19:41:17.181Z,18.72
2023-06-12T19:43:46.058Z,18.64
2023-06-12T19:46:14.606Z,18.61
2023-06-12T19:48:43.843Z,18.57
2023-06-12T19:51:13.004Z,18.53
2023-06-12T19:53:41.342Z,18.40
2023-06-12T19:56:09.040Z,18.29
2023-06-12T19:58:36.641Z,18.20
2023-06-12T20:01:04.354Z,18.02
2023-06-12T20:03:32.098Z,17.79
2023-06-12T20:05:59.834Z,17.64
2023-06-12T20:08:28.030Z,17.53
2023-06-12T20:10:55.683Z,17.52
2023-06-12T20:13:23.243Z,17.51
2023-06-12T20:15:50.978Z,17.48
2023-06-12T20:18:19.203Z,17.47
2023-06-12T20:20:50.447Z,17.44
2023-06-12T20:23:19.216Z,17.40
2023-06-12T20:25:50.155Z,17.35
2023-06-12T20:28:22.849Z,17.29
2023-06-12T20:30:58.994Z,17.23
2023-06-12T20:33:33.850Z,17.20
2023-06-12T20:36:09.048Z,17.14
2023-06-12T20:38:58.675Z,17.01
2023-06-12T20:41:26.774Z,16.86
2023-06-12T20:44:06.226Z,16.79
2023-06-12T20:46:58.783Z,16.70
2023-06-12T20:49:39.418Z,16.58
2023-06-12T20:52:14.737Z,16.45
2023-06-12T20:55:09.059Z,16.32
2023-06-12T20:57:39.066Z,16.24
2023-06-12T21:00:22.454Z,16.16
2023-06-12T21:02:51.882Z,16.09
2023-06-12T21:05:22.920Z,16.06
2023-06-12T21:08:12.820Z,16.03
2023-06-12T21:10:47.320Z,15.98
2023-06-12T21:13:36.830Z,15.96
2023-06-12T21:16:42.595Z,15.84
2023-06-12T21:19:20.060Z,15.70
2023-06-12T21:21:50.672Z,15.66
2023-06-12T21:24:40.534Z,15.64
2023-06-12T21:27:16.202Z,15.64
2023-06-12T21:30:09.738Z,15.61
2023-06-12T21:32:45.528Z,15.58
2023-06-12T21:35:13.734Z,15.53
2023-06-12T21:37:51.517Z,15.52
2023-06-12T21:40:31.917Z,15.48
2023-06-12T21:43:20.736Z,15.42
2023-06-12T21:45:52.294Z,15.37
2023-06-12T21:48:24.168Z,15.32
2023-06-12T21:51:17.695Z,15.29
2023-06-12T21:54:11.417Z,15.29
2023-06-12T21:56:43.364Z,15.27
2023-06-12T21:59:15.680Z,15.24
2023-06-12T22:01:47.465Z,15.20
2023-06-12T22:04:21.024Z,15.15
2023-06-12T22:06:53.070Z,15.09
2023-06-12T22:09:25.380Z,15.05
2023-06-12T22:12:01.547Z,15.00
2023-06-12T22:14:41.235Z,14.95
2023-06-12T22:17:13.606Z,14.85
2023-06-12T22:20:05.364Z,14.82
2023-06-12T22:22:51.402Z,14.81
2023-06-12T22:25:42.329Z,14.79
2023-06-12T22:28:19.286Z,14.77
2023-06-12T22:31:00.789Z,14.73
2023-06-12T22:33:33.412Z,14.70
2023-06-12T22:36:08.209Z,14.65
2023-06-12T22:38:43.999Z,14.60
2023-06-12T22:41:18.075Z,14.57
2023-06-12T22:44:06.005Z,14.53
2023-06-12T22:46:45.309Z,14.49
2023-06-12T22:49:20.194Z,14.50
2023-06-12T22:51:51.773Z,14.50
2023-06-12T22:54:20.112Z,14.49
2023-06-12T22:56:52.284Z,14.46
2023-06-12T22:59:23.503Z,14.41
2023-06-12T23:02:16.938Z,14.35
2023-06-12T23:04:47.500Z,14.31
2023-06-12T23:07:25.689Z,14.27
2023-06-12T23:09:54.434Z,14.19
2023-06-12T23:12:59.139Z,14.11
2023-06-12T23:15:46.410Z,14.04
2023-06-12T23:18:34.789Z,14.00
2023-06-12T23:21:24.680Z,13.98
2023-06-12T23:23:58.284Z,13.91
2023-06-12T23:26:49.871Z,13.87
2023-06-12T23:29:40.753Z,13.84
2023-06-12T23:32:35.821Z,13.77
2023-06-12T23:35:22.013Z,13.68
2023-06-12T23:38:13.207Z,13.60
2023-06-12T23:40:44.554Z,13.51
2023-06-12T23:43:15.817Z,13.35
2023-06-12T23:46:06.382Z,13.17
2023-06-12T23:48:56.346Z,13.00
2023-06-12T23:51:45.149Z,12.87
2023-06-12T23:54:34.621Z,12.77
2023-06-12T23:57:23.275Z,12.69
